sensor_id;sensor_type;location;lat;lon;timestamp;P1;durP1;ratioP1;P2;durP2;ratioP2
8232;SDS011;4157;48.074;9.952;2023-09-12T00:01:40;12.05;;;9.40;;
8232;SDS011;4157;48.074;9.952;2023-09-12T00:04:08;14.68;;;9.20;;
8232;SDS011;4157;48.074;9.952;2023-09-12T00:06:36;9.95;;;8.25;;
8232;SDS011;4157;48.074;9.952;2023-09-12T00:09:06;9.88;;;8.52;;
8232;SDS011;4157;48.074;9.952;2023-09-12T00:11:34;11.18;;;7.90;;
8232;SDS011;4157;48.074;9.952;2023-09-12T00:14:02;11.32;;;8.80;;
8232;SDS011;4157;48.074;9.952;2023-09-12T00:16:29;11.02;;;8.43;;
8232;SDS011;4157;48.074;9.952;2023-09-12T00:18:57;10.63;;;8.15;;
8232;SDS011;4157;48.074;9.952;2023-09-12T00:21:25;11.73;;;9.13;;
8232;SDS011;4157;48.074;9.952;2023-09-12T00:23:52;9.80;;;8.10;;
8232;SDS011;4157;48.074;9.952;2023-09-12T00:26:21;10.88;;;8.45;;
8232;SDS011;4157;48.074;9.952;2023-09-12T00:28:50;10.13;;;8.60;;
8232;SDS011;4157;48.074;9.952;2023-09-12T00:31:18;10.35;;;8.88;;
8232;SDS011;4157;48.074;9.952;2023-09-12T00:33:45;13.80;;;8.65;;
8232;SDS011;4157;48.074;9.952;2023-09-12T00:36:13;10.70;;;8.50;;
8232;SDS011;4157;48.074;9.952;2023-09-12T00:38:40;11.68;;;9.18;;
8232;SDS011;4157;48.074;9.952;2023-09-12T00:41:08;9.85;;;8.60;;
8232;SDS011;4157;48.074;9.952;2023-09-12T00:43:37;11.35;;;8.88;;
8232;SDS011;4157;48.074;9.952;2023-09-12T00:46:05;13.38;;;9.07;;
8232;SDS011;4157;48.074;9.952;2023-09-12T00:48:32;11.73;;;8.90;;
8232;SDS011;4157;48.074;9.952;2023-09-12T00:51:00;12.82;;;8.90;;
8232;SDS011;4157;48.074;9.952;2023-09-12T00:53:29;10.25;;;8.45;;
8232;SDS011;4157;48.074;9.952;2023-09-12T00:55:57;10.88;;;8.38;;
8232;SDS011;4157;48.074;9.952;2023-09-12T00:58:26;13.05;;;9.50;;
8232;SDS011;4157;48.074;9.952;2023-09-12T01:00:55;10.50;;;8.80;;
8232;SDS011;4157;48.074;9.952;2023-09-12T01:03:24;12.25;;;9.30;;
8232;SDS011;4157;48.074;9.952;2023-09-12T01:05:53;10.23;;;8.65;;
8232;SDS011;4157;48.074;9.952;2023-09-12T01:08:21;12.65;;;9.07;;
8232;SDS011;4157;48.074;9.952;2023-09-12T01:10:49;10.88;;;8.30;;
8232;SDS011;4157;48.074;9.952;2023-09-12T01:13:17;9.93;;;8.60;;
8232;SDS011;4157;48.074;9.952;2023-09-12T01:15:44;12.48;;;9.05;;
8232;SDS011;4157;48.074;9.952;2023-09-12T01:18:13;11.15;;;8.35;;
8232;SDS011;4157;48.074;9.952;2023-09-12T01:20:41;11.90;;;8.85;;
8232;SDS011;4157;48.074;9.952;2023-09-12T01:23:21;10.95;;;8.70;;
8232;SDS011;4157;48.074;9.952;2023-09-12T01:28:39;10.52;;;8.65;;
8232;SDS011;4157;48.074;9.952;2023-09-12T01:31:09;11.75;;;8.88;;
8232;SDS011;4157;48.074;9.952;2023-09-12T01:33:37;10.43;;;8.27;;
8232;SDS011;4157;48.074;9.952;2023-09-12T01:36:04;11.38;;;8.55;;
8232;SDS011;4157;48.074;9.952;2023-09-12T01:38:32;10.98;;;9.00;;
8232;SDS011;4157;48.074;9.952;2023-09-12T01:41:00;10.60;;;8.70;;
8232;SDS011;4157;48.074;9.952;2023-09-12T01:43:28;10.50;;;8.55;;
8232;SDS011;4157;48.074;9.952;2023-09-12T01:45:58;11.77;;;9.07;;
8232;SDS011;4157;48.074;9.952;2023-09-12T01:48:28;12.13;;;8.82;;
8232;SDS011;4157;48.074;9.952;2023-09-12T01:50:59;12.85;;;8.45;;
8232;SDS011;4157;48.074;9.952;2023-09-12T01:53:27;13.95;;;10.18;;
8232;SDS011;4157;48.074;9.952;2023-09-12T01:55:56;13.48;;;10.05;;
8232;SDS011;4157;48.074;9.952;2023-09-12T01:58:24;12.55;;;10.55;;
8232;SDS011;4157;48.074;9.952;2023-09-12T02:00:52;11.88;;;9.50;;
8232;SDS011;4157;48.074;9.952;2023-09-12T02:03:23;15.02;;;11.25;;
8232;SDS011;4157;48.074;9.952;2023-09-12T02:05:50;13.85;;;10.23;;
8232;SDS011;4157;48.074;9.952;2023-09-12T02:08:18;12.07;;;9.98;;
8232;SDS011;4157;48.074;9.952;2023-09-12T02:10:47;12.10;;;9.80;;
8232;SDS011;4157;48.074;9.952;2023-09-12T02:13:14;11.35;;;9.77;;
8232;SDS011;4157;48.074;9.952;2023-09-12T02:15:42;14.20;;;9.93;;
8232;SDS011;4157;48.074;9.952;2023-09-12T02:18:10;11.43;;;9.55;;
8232;SDS011;4157;48.074;9.952;2023-09-12T02:20:40;14.50;;;10.25;;
8232;SDS011;4157;48.074;9.952;2023-09-12T02:23:11;12.02;;;9.88;;
8232;SDS011;4157;48.074;9.952;2023-09-12T02:25:39;10.38;;;9.10;;
8232;SDS011;4157;48.074;9.952;2023-09-12T02:28:06;11.43;;;10.23;;
8232;SDS011;4157;48.074;9.952;2023-09-12T02:30:37;13.93;;;9.60;;
8232;SDS011;4157;48.074;9.952;2023-09-12T02:33:05;14.52;;;9.57;;
8232;SDS011;4157;48.074;9.952;2023-09-12T02:35:33;11.18;;;9.07;;
8232;SDS011;4157;48.074;9.952;2023-09-12T02:38:02;12.90;;;10.27;;
8232;SDS011;4157;48.074;9.952;2023-09-12T02:40:30;12.10;;;10.20;;
8232;SDS011;4157;48.074;9.952;2023-09-12T02:42:58;12.02;;;10.00;;
8232;SDS011;4157;48.074;9.952;2023-09-12T02:45:25;14.45;;;10.48;;
8232;SDS011;4157;48.074;9.952;2023-09-12T02:47:54;10.80;;;9.65;;
8232;SDS011;4157;48.074;9.952;2023-09-12T02:50:21;11.73;;;10.18;;
8232;SDS011;4157;48.074;9.952;2023-09-12T02:52:49;13.07;;;9.68;;
8232;SDS011;4157;48.074;9.952;2023-09-12T02:55:18;12.02;;;9.82;;
8232;SDS011;4157;48.074;9.952;2023-09-12T02:57:46;12.25;;;9.93;;
8232;SDS011;4157;48.074;9.952;2023-09-12T03:00:13;12.80;;;9.48;;
8232;SDS011;4157;48.074;9.952;2023-09-12T03:02:41;11.68;;;10.25;;
8232;SDS011;4157;48.074;9.952;2023-09-12T03:05:10;12.63;;;9.48;;
8232;SDS011;4157;48.074;9.952;2023-09-12T03:07:37;12.18;;;9.57;;
8232;SDS011;4157;48.074;9.952;2023-09-12T03:10:05;13.00;;;9.90;;
8232;SDS011;4157;48.074;9.952;2023-09-12T03:12:36;12.68;;;10.38;;
8232;SDS011;4157;48.074;9.952;2023-09-12T03:15:04;13.38;;;9.90;;
8232;SDS011;4157;48.074;9.952;2023-09-12T03:17:32;11.32;;;9.90;;
8232;SDS011;4157;48.074;9.952;2023-09-12T03:20:00;12.05;;;9.38;;
8232;SDS011;4157;48.074;9.952;2023-09-12T03:22:28;11.38;;;10.13;;
8232;SDS011;4157;48.074;9.952;2023-09-12T03:24:57;13.63;;;10.20;;
8232;SDS011;4157;48.074;9.952;2023-09-12T03:27:25;11.73;;;9.93;;
8232;SDS011;4157;48.074;9.952;2023-09-12T03:29:54;13.20;;;9.63;;
8232;SDS011;4157;48.074;9.952;2023-09-12T03:32:22;13.40;;;9.93;;
8232;SDS011;4157;48.074;9.952;2023-09-12T03:34:50;12.27;;;10.35;;
8232;SDS011;4157;48.074;9.952;2023-09-12T03:37:18;12.35;;;10.18;;
8232;SDS011;4157;48.074;9.952;2023-09-12T03:39:47;11.43;;;10.23;;
8232;SDS011;4157;48.074;9.952;2023-09-12T03:42:15;11.65;;;9.60;;
8232;SDS011;4157;48.074;9.952;2023-09-12T03:44:42;13.50;;;8.93;;
8232;SDS011;4157;48.074;9.952;2023-09-12T03:47:11;14.55;;;9.30;;
8232;SDS011;4157;48.074;9.952;2023-09-12T03:49:39;14.45;;;9.95;;
8232;SDS011;4157;48.074;9.952;2023-09-12T03:52:07;11.90;;;10.20;;
8232;SDS011;4157;48.074;9.952;2023-09-12T03:54:34;13.18;;;10.45;;
8232;SDS011;4157;48.074;9.952;2023-09-12T03:57:02;13.52;;;9.13;;
8232;SDS011;4157;48.074;9.952;2023-09-12T03:59:30;14.32;;;10.50;;
8232;SDS011;4157;48.074;9.952;2023-09-12T04:01:58;16.30;;;9.70;;
8232;SDS011;4157;48.074;9.952;2023-09-12T04:04:27;14.18;;;10.93;;
8232;SDS011;4157;48.074;9.952;2023-09-12T04:06:55;13.10;;;9.80;;
8232;SDS011;4157;48.074;9.952;2023-09-12T04:09:22;12.75;;;10.30;;
8232;SDS011;4157;48.074;9.952;2023-09-12T04:11:50;14.85;;;9.32;;
8232;SDS011;4157;48.074;9.952;2023-09-12T04:14:18;11.80;;;9.50;;
8232;SDS011;4157;48.074;9.952;2023-09-12T04:16:45;13.25;;;10.23;;
8232;SDS011;4157;48.074;9.952;2023-09-12T04:19:13;12.80;;;9.90;;
8232;SDS011;4157;48.074;9.952;2023-09-12T04:21:42;13.52;;;9.43;;
8232;SDS011;4157;48.074;9.952;2023-09-12T04:24:10;13.63;;;10.32;;
8232;SDS011;4157;48.074;9.952;2023-09-12T04:26:38;13.73;;;9.88;;
8232;SDS011;4157;48.074;9.952;2023-09-12T04:29:06;12.38;;;10.57;;
8232;SDS011;4157;48.074;9.952;2023-09-12T04:31:36;12.07;;;9.75;;
8232;SDS011;4157;48.074;9.952;2023-09-12T04:34:04;11.27;;;9.98;;
8232;SDS011;4157;48.074;9.952;2023-09-12T04:36:32;11.93;;;9.48;;
8232;SDS011;4157;48.074;9.952;2023-09-12T04:39:01;12.23;;;9.32;;
8232;SDS011;4157;48.074;9.952;2023-09-12T04:41:30;11.38;;;9.50;;
8232;SDS011;4157;48.074;9.952;2023-09-12T04:43:58;12.77;;;10.00;;
8232;SDS011;4157;48.074;9.952;2023-09-12T04:46:28;12.35;;;9.43;;
8232;SDS011;4157;48.074;9.952;2023-09-12T04:48:55;18.50;;;11.00;;
8232;SDS011;4157;48.074;9.952;2023-09-12T04:51:23;13.65;;;10.82;;
8232;SDS011;4157;48.074;9.952;2023-09-12T04:53:52;13.38;;;10.82;;
8232;SDS011;4157;48.074;9.952;2023-09-12T04:56:22;13.80;;;10.65;;
8232;SDS011;4157;48.074;9.952;2023-09-12T04:58:50;11.77;;;10.27;;
8232;SDS011;4157;48.074;9.952;2023-09-12T05:01:17;13.02;;;9.68;;
8232;SDS011;4157;48.074;9.952;2023-09-12T05:03:45;16.00;;;10.60;;
8232;SDS011;4157;48.074;9.952;2023-09-12T05:06:13;10.98;;;9.75;;
8232;SDS011;4157;48.074;9.952;2023-09-12T05:08:41;11.95;;;9.55;;
8232;SDS011;4157;48.074;9.952;2023-09-12T05:11:08;12.75;;;9.88;;
8232;SDS011;4157;48.074;9.952;2023-09-12T05:13:38;14.82;;;10.25;;
8232;SDS011;4157;48.074;9.952;2023-09-12T05:16:05;13.13;;;9.75;;
8232;SDS011;4157;48.074;9.952;2023-09-12T05:18:33;11.32;;;9.15;;
8232;SDS011;4157;48.074;9.952;2023-09-12T05:21:01;12.52;;;9.70;;
8232;SDS011;4157;48.074;9.952;2023-09-12T05:23:28;16.05;;;10.20;;
8232;SDS011;4157;48.074;9.952;2023-09-12T05:25:56;11.15;;;9.45;;
8232;SDS011;4157;48.074;9.952;2023-09-12T05:28:24;12.43;;;10.10;;
8232;SDS011;4157;48.074;9.952;2023-09-12T05:30:53;11.70;;;9.25;;
8232;SDS011;4157;48.074;9.952;2023-09-12T05:33:21;14.38;;;9.52;;
8232;SDS011;4157;48.074;9.952;2023-09-12T05:35:49;12.30;;;10.10;;
8232;SDS011;4157;48.074;9.952;2023-09-12T05:38:16;13.57;;;10.15;;
8232;SDS011;4157;48.074;9.952;2023-09-12T05:40:44;12.95;;;9.57;;
8232;SDS011;4157;48.074;9.952;2023-09-12T05:43:12;13.73;;;10.32;;
8232;SDS011;4157;48.074;9.952;2023-09-12T05:45:39;14.35;;;10.73;;
8232;SDS011;4157;48.074;9.952;2023-09-12T05:48:08;15.50;;;10.23;;
8232;SDS011;4157;48.074;9.952;2023-09-12T05:50:37;16.70;;;10.20;;
8232;SDS011;4157;48.074;9.952;2023-09-12T05:53:04;14.98;;;11.25;;
8232;SDS011;4157;48.074;9.952;2023-09-12T05:55:32;14.32;;;11.27;;
8232;SDS011;4157;48.074;9.952;2023-09-12T05:58:00;15.25;;;11.05;;
8232;SDS011;4157;48.074;9.952;2023-09-12T06:00:29;14.15;;;10.60;;
8232;SDS011;4157;48.074;9.952;2023-09-12T06:02:57;13.10;;;10.35;;
8232;SDS011;4157;48.074;9.952;2023-09-12T06:05:26;15.73;;;10.88;;
8232;SDS011;4157;48.074;9.952;2023-09-12T06:07:54;10.95;;;9.85;;
8232;SDS011;4157;48.074;9.952;2023-09-12T06:10:22;14.85;;;10.00;;
8232;SDS011;4157;48.074;9.952;2023-09-12T06:12:49;12.60;;;10.95;;
8232;SDS011;4157;48.074;9.952;2023-09-12T06:15:17;14.75;;;10.50;;
8232;SDS011;4157;48.074;9.952;2023-09-12T06:17:45;14.52;;;11.00;;
8232;SDS011;4157;48.074;9.952;2023-09-12T06:20:12;13.98;;;10.93;;
8232;SDS011;4157;48.074;9.952;2023-09-12T06:22:41;11.82;;;10.18;;
8232;SDS011;4157;48.074;9.952;2023-09-12T06:25:09;17.40;;;11.05;;
8232;SDS011;4157;48.074;9.952;2023-09-12T06:27:37;13.75;;;11.35;;
8232;SDS011;4157;48.074;9.952;2023-09-12T06:30:05;14.15;;;10.52;;
8232;SDS011;4157;48.074;9.952;2023-09-12T06:32:33;15.48;;;11.55;;
8232;SDS011;4157;48.074;9.952;2023-09-12T06:35:02;15.73;;;11.25;;
8232;SDS011;4157;48.074;9.952;2023-09-12T06:37:30;13.63;;;10.52;;
8232;SDS011;4157;48.074;9.952;2023-09-12T06:39:59;15.57;;;10.93;;
8232;SDS011;4157;48.074;9.952;2023-09-12T06:42:27;13.73;;;10.95;;
8232;SDS011;4157;48.074;9.952;2023-09-12T06:44:55;18.20;;;11.10;;
8232;SDS011;4157;48.074;9.952;2023-09-12T06:47:22;12.55;;;9.93;;
8232;SDS011;4157;48.074;9.952;2023-09-12T06:49:50;12.25;;;9.93;;
8232;SDS011;4157;48.074;9.952;2023-09-12T06:52:18;13.73;;;9.95;;
8232;SDS011;4157;48.074;9.952;2023-09-12T06:54:45;13.77;;;9.75;;
8232;SDS011;4157;48.074;9.952;2023-09-12T06:57:14;13.88;;;10.15;;
8232;SDS011;4157;48.074;9.952;2023-09-12T06:59:42;14.05;;;10.32;;
8232;SDS011;4157;48.074;9.952;2023-09-12T07:02:10;11.90;;;9.23;;
8232;SDS011;4157;48.074;9.952;2023-09-12T07:04:38;13.68;;;9.10;;
8232;SDS011;4157;48.074;9.952;2023-09-12T07:07:06;15.70;;;9.82;;
8232;SDS011;4157;48.074;9.952;2023-09-12T07:09:33;11.30;;;9.65;;
8232;SDS011;4157;48.074;9.952;2023-09-12T07:12:01;10.63;;;9.35;;
8232;SDS011;4157;48.074;9.952;2023-09-12T07:14:32;13.93;;;9.55;;
8232;SDS011;4157;48.074;9.952;2023-09-12T07:17:00;13.45;;;9.40;;
8232;SDS011;4157;48.074;9.952;2023-09-12T07:19:28;12.20;;;9.18;;
8232;SDS011;4157;48.074;9.952;2023-09-12T07:21:56;10.63;;;9.48;;
8232;SDS011;4157;48.074;9.952;2023-09-12T07:24:24;12.57;;;9.05;;
8232;SDS011;4157;48.074;9.952;2023-09-12T07:26:52;12.75;;;9.80;;
8232;SDS011;4157;48.074;9.952;2023-09-12T07:29:20;10.75;;;9.18;;
8232;SDS011;4157;48.074;9.952;2023-09-12T07:31:49;11.15;;;8.82;;
8232;SDS011;4157;48.074;9.952;2023-09-12T07:34:19;12.95;;;9.05;;
8232;SDS011;4157;48.074;9.952;2023-09-12T07:36:46;12.05;;;9.07;;
8232;SDS011;4157;48.074;9.952;2023-09-12T07:39:14;13.43;;;9.20;;
8232;SDS011;4157;48.074;9.952;2023-09-12T07:41:42;12.75;;;9.60;;
8232;SDS011;4157;48.074;9.952;2023-09-12T07:44:09;10.48;;;8.70;;
8232;SDS011;4157;48.074;9.952;2023-09-12T07:46:37;13.75;;;8.75;;
8232;SDS011;4157;48.074;9.952;2023-09-12T07:49:06;12.68;;;8.80;;
8232;SDS011;4157;48.074;9.952;2023-09-12T07:51:35;11.15;;;9.65;;
8232;SDS011;4157;48.074;9.952;2023-09-12T07:54:03;12.27;;;8.73;;
8232;SDS011;4157;48.074;9.952;2023-09-12T07:56:31;12.15;;;9.05;;
8232;SDS011;4157;48.074;9.952;2023-09-12T07:58:59;11.93;;;8.45;;
8232;SDS011;4157;48.074;9.952;2023-09-12T08:01:26;16.73;;;10.23;;
8232;SDS011;4157;48.074;9.952;2023-09-12T08:03:54;14.68;;;9.38;;
8232;SDS011;4157;48.074;9.952;2023-09-12T08:06:24;12.40;;;9.00;;
8232;SDS011;4157;48.074;9.952;2023-09-12T08:08:51;12.52;;;9.20;;
8232;SDS011;4157;48.074;9.952;2023-09-12T08:11:19;13.40;;;8.70;;
8232;SDS011;4157;48.074;9.952;2023-09-12T08:13:48;11.85;;;9.40;;
8232;SDS011;4157;48.074;9.952;2023-09-12T08:16:16;13.32;;;8.70;;
8232;SDS011;4157;48.074;9.952;2023-09-12T08:18:43;12.93;;;9.18;;
8232;SDS011;4157;48.074;9.952;2023-09-12T08:21:11;11.50;;;8.88;;
8232;SDS011;4157;48.074;9.952;2023-09-12T08:23:40;12.95;;;8.35;;
8232;SDS011;4157;48.074;9.952;2023-09-12T08:26:08;12.18;;;8.95;;
8232;SDS011;4157;48.074;9.952;2023-09-12T08:28:35;12.73;;;8.20;;
8232;SDS011;4157;48.074;9.952;2023-09-12T08:31:03;12.18;;;8.32;;
8232;SDS011;4157;48.074;9.952;2023-09-12T08:33:31;11.65;;;9.05;;
8232;SDS011;4157;48.074;9.952;2023-09-12T08:35:58;10.25;;;8.18;;
8232;SDS011;4157;48.074;9.952;2023-09-12T08:38:26;12.00;;;8.93;;
8232;SDS011;4157;48.074;9.952;2023-09-12T08:40:55;14.70;;;9.02;;
8232;SDS011;4157;48.074;9.952;2023-09-12T08:43:23;12.18;;;8.55;;
8232;SDS011;4157;48.074;9.952;2023-09-12T08:45:51;12.60;;;8.38;;
8232;SDS011;4157;48.074;9.952;2023-09-12T08:48:18;10.88;;;8.20;;
8232;SDS011;4157;48.074;9.952;2023-09-12T08:50:47;10.75;;;9.10;;
8232;SDS011;4157;48.074;9.952;2023-09-12T08:53:15;10.23;;;7.93;;
8232;SDS011;4157;48.074;9.952;2023-09-12T08:55:46;11.70;;;8.00;;
8232;SDS011;4157;48.074;9.952;2023-09-12T08:58:15;11.43;;;8.00;;
8232;SDS011;4157;48.074;9.952;2023-09-12T09:00:43;10.95;;;8.60;;
8232;SDS011;4157;48.074;9.952;2023-09-12T09:03:10;10.88;;;8.60;;
8232;SDS011;4157;48.074;9.952;2023-09-12T09:05:38;11.30;;;8.52;;
8232;SDS011;4157;48.074;9.952;2023-09-12T09:08:06;10.65;;;8.02;;
8232;SDS011;4157;48.074;9.952;2023-09-12T09:10:34;11.10;;;8.50;;
8232;SDS011;4157;48.074;9.952;2023-09-12T09:13:03;10.60;;;8.40;;
8232;SDS011;4157;48.074;9.952;2023-09-12T09:15:33;11.48;;;7.97;;
8232;SDS011;4157;48.074;9.952;2023-09-12T09:18:04;11.93;;;8.27;;
8232;SDS011;4157;48.074;9.952;2023-09-12T09:20:32;10.98;;;8.57;;
8232;SDS011;4157;48.074;9.952;2023-09-12T09:23:02;11.30;;;8.32;;
8232;SDS011;4157;48.074;9.952;2023-09-12T09:25:31;10.48;;;8.23;;
8232;SDS011;4157;48.074;9.952;2023-09-12T09:28:01;13.32;;;8.63;;
8232;SDS011;4157;48.074;9.952;2023-09-12T09:30:41;12.35;;;9.10;;
8232;SDS011;4157;48.074;9.952;2023-09-12T09:33:09;11.88;;;8.85;;
8232;SDS011;4157;48.074;9.952;2023-09-12T09:35:37;11.85;;;9.35;;
8232;SDS011;4157;48.074;9.952;2023-09-12T09:38:06;11.85;;;9.40;;
8232;SDS011;4157;48.074;9.952;2023-09-12T09:40:34;11.02;;;8.75;;
8232;SDS011;4157;48.074;9.952;2023-09-12T09:43:02;11.98;;;8.73;;
8232;SDS011;4157;48.074;9.952;2023-09-12T09:45:30;11.75;;;8.57;;
8232;SDS011;4157;48.074;9.952;2023-09-12T09:48:03;10.55;;;8.80;;
8232;SDS011;4157;48.074;9.952;2023-09-12T09:52:59;9.38;;;7.93;;
8232;SDS011;4157;48.074;9.952;2023-09-12T09:55:30;10.50;;;8.25;;
8232;SDS011;4157;48.074;9.952;2023-09-12T09:57:57;10.00;;;8.15;;
8232;SDS011;4157;48.074;9.952;2023-09-12T10:00:25;13.80;;;8.30;;
8232;SDS011;4157;48.074;9.952;2023-09-12T10:02:55;11.65;;;8.40;;
8232;SDS011;4157;48.074;9.952;2023-09-12T10:05:25;11.40;;;8.27;;
8232;SDS011;4157;48.074;9.952;2023-09-12T10:07:54;10.80;;;8.95;;
8232;SDS011;4157;48.074;9.952;2023-09-12T10:10:23;8.75;;;7.75;;
8232;SDS011;4157;48.074;9.952;2023-09-12T10:12:53;9.30;;;7.65;;
8232;SDS011;4157;48.074;9.952;2023-09-12T10:15:22;9.48;;;8.10;;
8232;SDS011;4157;48.074;9.952;2023-09-12T10:17:51;9.23;;;7.40;;
8232;SDS011;4157;48.074;9.952;2023-09-12T10:20:26;10.15;;;7.60;;
8232;SDS011;4157;48.074;9.952;2023-09-12T10:22:59;9.02;;;7.47;;
8232;SDS011;4157;48.074;9.952;2023-09-12T10:25:29;10.80;;;7.97;;
8232;SDS011;4157;48.074;9.952;2023-09-12T10:27:57;11.32;;;8.40;;
8232;SDS011;4157;48.074;9.952;2023-09-12T10:30:25;10.68;;;7.82;;
8232;SDS011;4157;48.074;9.952;2023-09-12T10:32:53;9.32;;;7.65;;
8232;SDS011;4157;48.074;9.952;2023-09-12T10:35:22;13.52;;;8.25;;
8232;SDS011;4157;48.074;9.952;2023-09-12T10:37:51;10.60;;;7.25;;
8232;SDS011;4157;48.074;9.952;2023-09-12T10:40:21;11.05;;;7.88;;
8232;SDS011;4157;48.074;9.952;2023-09-12T10:42:49;11.73;;;7.78;;
8232;SDS011;4157;48.074;9.952;2023-09-12T10:45:17;11.50;;;8.00;;
8232;SDS011;4157;48.074;9.952;2023-09-12T10:47:44;8.35;;;7.20;;
8232;SDS011;4157;48.074;9.952;2023-09-12T10:50:12;10.55;;;7.43;;
8232;SDS011;4157;48.074;9.952;2023-09-12T10:52:41;9.70;;;7.57;;
8232;SDS011;4157;48.074;9.952;2023-09-12T10:55:12;10.23;;;8.07;;
8232;SDS011;4157;48.074;9.952;2023-09-12T11:00:25;10.73;;;7.63;;
8232;SDS011;4157;48.074;9.952;2023-09-12T11:02:53;11.05;;;7.80;;
8232;SDS011;4157;48.074;9.952;2023-09-12T11:05:37;14.10;;;7.78;;
8232;SDS011;4157;48.074;9.952;2023-09-12T11:08:05;9.00;;;7.40;;
8232;SDS011;4157;48.074;9.952;2023-09-12T11:10:34;11.43;;;7.50;;
8232;SDS011;4157;48.074;9.952;2023-09-12T11:13:02;9.35;;;7.05;;
8232;SDS011;4157;48.074;9.952;2023-09-12T11:15:30;9.30;;;6.18;;
8232;SDS011;4157;48.074;9.952;2023-09-12T11:18:01;8.05;;;6.03;;
8232;SDS011;4157;48.074;9.952;2023-09-12T11:23:18;9.95;;;6.45;;
8232;SDS011;4157;48.074;9.952;2023-09-12T11:25:47;9.60;;;7.10;;
8232;SDS011;4157;48.074;9.952;2023-09-12T11:28:15;9.73;;;7.00;;
8232;SDS011;4157;48.074;9.952;2023-09-12T11:30:55;7.55;;;6.53;;
8232;SDS011;4157;48.074;9.952;2023-09-12T11:33:24;10.10;;;6.82;;
8232;SDS011;4157;48.074;9.952;2023-09-12T11:35:52;10.55;;;7.25;;
8232;SDS011;4157;48.074;9.952;2023-09-12T11:38:27;9.73;;;7.20;;
8232;SDS011;4157;48.074;9.952;2023-09-12T11:40:57;10.27;;;6.95;;
8232;SDS011;4157;48.074;9.952;2023-09-12T11:43:25;13.40;;;6.68;;
8232;SDS011;4157;48.074;9.952;2023-09-12T11:45:54;10.07;;;6.60;;
8232;SDS011;4157;48.074;9.952;2023-09-12T11:48:21;10.38;;;6.90;;
8232;SDS011;4157;48.074;9.952;2023-09-12T11:50:49;10.05;;;6.57;;
8232;SDS011;4157;48.074;9.952;2023-09-12T11:53:19;9.07;;;6.70;;
8232;SDS011;4157;48.074;9.952;2023-09-12T11:55:48;8.98;;;6.60;;
8232;SDS011;4157;48.074;9.952;2023-09-12T11:58:18;8.88;;;5.90;;
8232;SDS011;4157;48.074;9.952;2023-09-12T12:00:46;8.68;;;6.50;;
8232;SDS011;4157;48.074;9.952;2023-09-12T12:03:15;8.32;;;6.05;;
8232;SDS011;4157;48.074;9.952;2023-09-12T12:05:42;9.73;;;6.53;;
8232;SDS011;4157;48.074;9.952;2023-09-12T12:08:10;9.10;;;6.40;;
8232;SDS011;4157;48.074;9.952;2023-09-12T12:10:38;9.40;;;5.47;;
8232;SDS011;4157;48.074;9.952;2023-09-12T12:13:07;9.65;;;5.82;;
8232;SDS011;4157;48.074;9.952;2023-09-12T12:15:39;8.90;;;5.93;;
8232;SDS011;4157;48.074;9.952;2023-09-12T12:18:07;8.90;;;6.50;;
8232;SDS011;4157;48.074;9.952;2023-09-12T12:20:35;8.45;;;5.82;;
8232;SDS011;4157;48.074;9.952;2023-09-12T12:23:03;10.07;;;6.30;;
8232;SDS011;4157;48.074;9.952;2023-09-12T12:25:31;9.73;;;5.85;;
8232;SDS011;4157;48.074;9.952;2023-09-12T12:27:59;9.95;;;5.25;;
8232;SDS011;4157;48.074;9.952;2023-09-12T12:30:29;9.32;;;5.63;;
8232;SDS011;4157;48.074;9.952;2023-09-12T12:33:00;11.27;;;5.65;;
8232;SDS011;4157;48.074;9.952;2023-09-12T12:35:28;8.43;;;5.15;;
8232;SDS011;4157;48.074;9.952;2023-09-12T12:37:56;8.60;;;5.50;;
8232;SDS011;4157;48.074;9.952;2023-09-12T12:40:23;8.52;;;5.20;;
8232;SDS011;4157;48.074;9.952;2023-09-12T12:42:51;8.40;;;6.32;;
8232;SDS011;4157;48.074;9.952;2023-09-12T12:45:19;6.93;;;5.47;;
8232;SDS011;4157;48.074;9.952;2023-09-12T12:47:50;7.15;;;5.63;;
8232;SDS011;4157;48.074;9.952;2023-09-12T12:50:20;7.03;;;5.30;;
8232;SDS011;4157;48.074;9.952;2023-09-12T12:52:48;9.38;;;5.50;;
8232;SDS011;4157;48.074;9.952;2023-09-12T12:55:16;9.35;;;5.03;;
8232;SDS011;4157;48.074;9.952;2023-09-12T12:57:45;7.03;;;5.35;;
8232;SDS011;4157;48.074;9.952;2023-09-12T13:00:13;7.47;;;5.40;;
8232;SDS011;4157;48.074;9.952;2023-09-12T13:02:41;7.70;;;5.60;;
8232;SDS011;4157;48.074;9.952;2023-09-12T13:05:20;8.18;;;5.78;;
8232;SDS011;4157;48.074;9.952;2023-09-12T13:07:49;7.20;;;5.15;;
8232;SDS011;4157;48.074;9.952;2023-09-12T13:10:17;6.88;;;5.35;;
8232;SDS011;4157;48.074;9.952;2023-09-12T13:12:45;7.38;;;5.22;;
8232;SDS011;4157;48.074;9.952;2023-09-12T13:15:12;8.35;;;5.20;;
8232;SDS011;4157;48.074;9.952;2023-09-12T13:17:40;7.88;;;5.20;;
8232;SDS011;4157;48.074;9.952;2023-09-12T13:20:08;7.43;;;4.95;;
8232;SDS011;4157;48.074;9.952;2023-09-12T13:22:38;14.30;;;5.82;;
8232;SDS011;4157;48.074;9.952;2023-09-12T13:25:06;9.35;;;5.30;;
8232;SDS011;4157;48.074;9.952;2023-09-12T13:27:34;10.00;;;5.80;;
8232;SDS011;4157;48.074;9.952;2023-09-12T13:30:02;7.45;;;5.13;;
8232;SDS011;4157;48.074;9.952;2023-09-12T13:32:30;6.93;;;5.55;;
8232;SDS011;4157;48.074;9.952;2023-09-12T13:34:59;10.02;;;4.90;;
8232;SDS011;4157;48.074;9.952;2023-09-12T13:37:27;7.13;;;4.68;;
8232;SDS011;4157;48.074;9.952;2023-09-12T13:39:57;6.07;;;4.72;;
8232;SDS011;4157;48.074;9.952;2023-09-12T13:42:25;9.73;;;4.97;;
8232;SDS011;4157;48.074;9.952;2023-09-12T13:44:56;5.57;;;4.13;;
8232;SDS011;4157;48.074;9.952;2023-09-12T13:47:24;9.52;;;4.80;;
8232;SDS011;4157;48.074;9.952;2023-09-12T13:49:52;9.77;;;4.60;;
8232;SDS011;4157;48.074;9.952;2023-09-12T13:52:19;8.38;;;4.63;;
8232;SDS011;4157;48.074;9.952;2023-09-12T13:54:47;7.65;;;4.93;;
8232;SDS011;4157;48.074;9.952;2023-09-12T13:57:16;5.38;;;4.28;;
8232;SDS011;4157;48.074;9.952;2023-09-12T13:59:44;6.68;;;4.57;;
8232;SDS011;4157;48.074;9.952;2023-09-12T14:02:12;5.85;;;4.07;;
8232;SDS011;4157;48.074;9.952;2023-09-12T14:04:39;7.10;;;4.38;;
8232;SDS011;4157;48.074;9.952;2023-09-12T14:07:07;6.53;;;4.80;;
8232;SDS011;4157;48.074;9.952;2023-09-12T14:09:35;6.40;;;4.97;;
8232;SDS011;4157;48.074;9.952;2023-09-12T14:12:03;6.88;;;4.47;;
8232;SDS011;4157;48.074;9.952;2023-09-12T14:14:33;7.57;;;5.30;;
8232;SDS011;4157;48.074;9.952;2023-09-12T14:17:00;5.95;;;4.38;;
8232;SDS011;4157;48.074;9.952;2023-09-12T14:19:28;6.80;;;4.57;;
8232;SDS011;4157;48.074;9.952;2023-09-12T14:21:56;7.35;;;4.85;;
8232;SDS011;4157;48.074;9.952;2023-09-12T14:24:23;6.57;;;4.68;;
8232;SDS011;4157;48.074;9.952;2023-09-12T14:26:51;7.05;;;5.00;;
8232;SDS011;4157;48.074;9.952;2023-09-12T14:29:19;5.93;;;4.35;;
8232;SDS011;4157;48.074;9.952;2023-09-12T14:31:48;7.45;;;5.05;;
8232;SDS011;4157;48.074;9.952;2023-09-12T14:34:18;7.93;;;5.20;;
8232;SDS011;4157;48.074;9.952;2023-09-12T14:36:46;7.00;;;4.65;;
8232;SDS011;4157;48.074;9.952;2023-09-12T14:39:14;8.55;;;5.10;;
8232;SDS011;4157;48.074;9.952;2023-09-12T14:41:41;8.80;;;5.65;;
8232;SDS011;4157;48.074;9.952;2023-09-12T14:44:09;13.75;;;5.53;;
8232;SDS011;4157;48.074;9.952;2023-09-12T14:46:37;9.80;;;5.50;;
8232;SDS011;4157;48.074;9.952;2023-09-12T14:49:06;10.00;;;5.78;;
8232;SDS011;4157;48.074;9.952;2023-09-12T14:51:36;7.07;;;5.05;;
8232;SDS011;4157;48.074;9.952;2023-09-12T14:54:03;7.57;;;5.05;;
8232;SDS011;4157;48.074;9.952;2023-09-12T14:56:31;13.73;;;5.82;;
8232;SDS011;4157;48.074;9.952;2023-09-12T14:58:59;8.80;;;5.18;;
8232;SDS011;4157;48.074;9.952;2023-09-12T15:01:28;8.05;;;5.60;;
8232;SDS011;4157;48.074;9.952;2023-09-12T15:03:55;9.50;;;5.53;;
8232;SDS011;4157;48.074;9.952;2023-09-12T15:06:25;7.18;;;5.30;;
8232;SDS011;4157;48.074;9.952;2023-09-12T15:08:52;6.95;;;5.35;;
8232;SDS011;4157;48.074;9.952;2023-09-12T15:11:20;7.43;;;5.22;;
8232;SDS011;4157;48.074;9.952;2023-09-12T15:13:48;8.00;;;5.57;;
8232;SDS011;4157;48.074;9.952;2023-09-12T15:16:15;9.00;;;5.50;;
8232;SDS011;4157;48.074;9.952;2023-09-12T15:18:43;7.25;;;4.97;;
8232;SDS011;4157;48.074;9.952;2023-09-12T15:21:11;9.48;;;6.00;;